Orlando, Florida
Current Conditions -  °F | °C
As of 11:53 PM on Sunday 19 Oct 2014 (Local Time) from KORL Reporting Station
Clear Clear  
Wind Chill: 73°   Ceiling: Unl
Heat Index: 73°   Visibility: 10mi
Dew Point: 64°   Wind: 6mph
Humidity: 73%   Direction: 360°N
Pressure: 30.05"   Gusts: NA
Location:  28.54°N, 81.38°W
Report Text: KORL 200353Z AUTO 36005KT 10SM CLR 23/18 A3005 RMK AO2 SLP179 T02280178
Loading
Personal Weather Stations






























Interactive Weather Map New forecast layout! Learn more

10-Day Weather Forecast

Advertisements
Track Severe Weather on mobile